sensor_id;sensor_type;location;lat;lon;timestamp;P1;durP1;ratioP1;P2;durP2;ratioP2
25917;SDS011;13899;51.174;4.456;2023-07-31T00:01:19;9.80;;;4.45;;
25917;SDS011;13899;51.174;4.456;2023-07-31T00:03:45;14.95;;;5.22;;
25917;SDS011;13899;51.174;4.456;2023-07-31T00:06:13;10.50;;;5.32;;
25917;SDS011;13899;51.174;4.456;2023-07-31T00:08:38;11.70;;;4.87;;
25917;SDS011;13899;51.174;4.456;2023-07-31T00:11:05;12.88;;;5.45;;
25917;SDS011;13899;51.174;4.456;2023-07-31T00:13:31;15.45;;;6.47;;
25917;SDS011;13899;51.174;4.456;2023-07-31T00:15:57;20.03;;;5.83;;
25917;SDS011;13899;51.174;4.456;2023-07-31T00:18:22;10.87;;;5.17;;
25917;SDS011;13899;51.174;4.456;2023-07-31T00:20:48;14.48;;;4.60;;
25917;SDS011;13899;51.174;4.456;2023-07-31T00:23:17;17.38;;;5.43;;
25917;SDS011;13899;51.174;4.456;2023-07-31T00:25:43;15.93;;;5.78;;
25917;SDS011;13899;51.174;4.456;2023-07-31T00:28:13;13.65;;;4.63;;
25917;SDS011;13899;51.174;4.456;2023-07-31T00:33:04;12.85;;;5.22;;
25917;SDS011;13899;51.174;4.456;2023-07-31T00:35:30;11.18;;;5.55;;
25917;SDS011;13899;51.174;4.456;2023-07-31T00:40:23;13.77;;;4.85;;
25917;SDS011;13899;51.174;4.456;2023-07-31T00:42:48;11.35;;;5.30;;
25917;SDS011;13899;51.174;4.456;2023-07-31T00:45:15;10.45;;;6.43;;
25917;SDS011;13899;51.174;4.456;2023-07-31T00:47:41;13.43;;;5.22;;
25917;SDS011;13899;51.174;4.456;2023-07-31T00:50:07;13.07;;;5.35;;
25917;SDS011;13899;51.174;4.456;2023-07-31T00:52:33;9.68;;;4.55;;
25917;SDS011;13899;51.174;4.456;2023-07-31T00:55:00;22.50;;;7.28;;
25917;SDS011;13899;51.174;4.456;2023-07-31T00:57:26;12.90;;;5.38;;
25917;SDS011;13899;51.174;4.456;2023-07-31T00:59:53;16.30;;;5.20;;
25917;SDS011;13899;51.174;4.456;2023-07-31T01:02:19;14.88;;;5.80;;
25917;SDS011;13899;51.174;4.456;2023-07-31T01:04:45;15.45;;;5.68;;
25917;SDS011;13899;51.174;4.456;2023-07-31T01:07:31;11.98;;;4.90;;
25917;SDS011;13899;51.174;4.456;2023-07-31T01:10:11;14.85;;;5.25;;
25917;SDS011;13899;51.174;4.456;2023-07-31T01:12:59;13.88;;;5.63;;
25917;SDS011;13899;51.174;4.456;2023-07-31T01:15:25;14.05;;;5.72;;
25917;SDS011;13899;51.174;4.456;2023-07-31T01:17:52;9.80;;;4.88;;
25917;SDS011;13899;51.174;4.456;2023-07-31T01:20:21;11.63;;;5.27;;
25917;SDS011;13899;51.174;4.456;2023-07-31T01:23:35;18.95;;;5.57;;
25917;SDS011;13899;51.174;4.456;2023-07-31T01:26:12;10.88;;;4.45;;
25917;SDS011;13899;51.174;4.456;2023-07-31T01:29:10;13.48;;;5.43;;
25917;SDS011;13899;51.174;4.456;2023-07-31T01:31:49;17.23;;;5.63;;
25917;SDS011;13899;51.174;4.456;2023-07-31T01:34:17;14.45;;;5.43;;
25917;SDS011;13899;51.174;4.456;2023-07-31T01:36:43;10.73;;;5.65;;
25917;SDS011;13899;51.174;4.456;2023-07-31T01:39:10;16.15;;;5.35;;
25917;SDS011;13899;51.174;4.456;2023-07-31T01:41:35;14.93;;;5.93;;
25917;SDS011;13899;51.174;4.456;2023-07-31T01:44:01;20.88;;;6.47;;
25917;SDS011;13899;51.174;4.456;2023-07-31T01:46:28;13.93;;;5.20;;
25917;SDS011;13899;51.174;4.456;2023-07-31T01:48:54;14.65;;;5.85;;
25917;SDS011;13899;51.174;4.456;2023-07-31T01:51:19;15.70;;;5.25;;
25917;SDS011;13899;51.174;4.456;2023-07-31T01:56:12;13.43;;;5.03;;
25917;SDS011;13899;51.174;4.456;2023-07-31T01:58:39;10.98;;;5.07;;
25917;SDS011;13899;51.174;4.456;2023-07-31T02:01:06;12.20;;;5.13;;
25917;SDS011;13899;51.174;4.456;2023-07-31T02:05:59;8.87;;;4.93;;
25917;SDS011;13899;51.174;4.456;2023-07-31T02:08:25;11.65;;;5.15;;
25917;SDS011;13899;51.174;4.456;2023-07-31T02:10:54;10.77;;;4.82;;
25917;SDS011;13899;51.174;4.456;2023-07-31T02:13:20;7.43;;;4.95;;
25917;SDS011;13899;51.174;4.456;2023-07-31T02:15:46;13.83;;;6.07;;
25917;SDS011;13899;51.174;4.456;2023-07-31T02:18:16;11.60;;;5.38;;
25917;SDS011;13899;51.174;4.456;2023-07-31T02:20:42;19.13;;;4.80;;
25917;SDS011;13899;51.174;4.456;2023-07-31T02:23:11;11.98;;;5.75;;
25917;SDS011;13899;51.174;4.456;2023-07-31T02:25:37;14.55;;;5.10;;
25917;SDS011;13899;51.174;4.456;2023-07-31T02:28:03;16.57;;;5.27;;
25917;SDS011;13899;51.174;4.456;2023-07-31T02:30:28;20.67;;;5.73;;
25917;SDS011;13899;51.174;4.456;2023-07-31T02:32:54;11.90;;;4.80;;
25917;SDS011;13899;51.174;4.456;2023-07-31T02:35:19;12.93;;;5.10;;
25917;SDS011;13899;51.174;4.456;2023-07-31T02:37:45;9.93;;;3.67;;
25917;SDS011;13899;51.174;4.456;2023-07-31T02:40:11;9.05;;;4.30;;
25917;SDS011;13899;51.174;4.456;2023-07-31T02:42:37;12.60;;;5.00;;
25917;SDS011;13899;51.174;4.456;2023-07-31T02:45:02;11.43;;;4.30;;
25917;SDS011;13899;51.174;4.456;2023-07-31T02:47:28;10.60;;;4.47;;
25917;SDS011;13899;51.174;4.456;2023-07-31T02:49:59;11.93;;;4.90;;
25917;SDS011;13899;51.174;4.456;2023-07-31T02:52:25;11.48;;;5.25;;
25917;SDS011;13899;51.174;4.456;2023-07-31T02:54:55;11.27;;;5.00;;
25917;SDS011;13899;51.174;4.456;2023-07-31T02:57:23;10.55;;;4.20;;
25917;SDS011;13899;51.174;4.456;2023-07-31T02:59:49;15.40;;;5.13;;
25917;SDS011;13899;51.174;4.456;2023-07-31T03:02:15;16.77;;;5.23;;
25917;SDS011;13899;51.174;4.456;2023-07-31T03:04:40;14.67;;;5.87;;
25917;SDS011;13899;51.174;4.456;2023-07-31T03:07:07;9.13;;;4.30;;
25917;SDS011;13899;51.174;4.456;2023-07-31T03:09:32;9.82;;;5.13;;
25917;SDS011;13899;51.174;4.456;2023-07-31T03:11:59;10.57;;;4.38;;
25917;SDS011;13899;51.174;4.456;2023-07-31T03:14:24;11.57;;;4.70;;
25917;SDS011;13899;51.174;4.456;2023-07-31T03:16:51;11.40;;;5.07;;
25917;SDS011;13899;51.174;4.456;2023-07-31T03:19:20;12.57;;;4.80;;
25917;SDS011;13899;51.174;4.456;2023-07-31T03:21:46;8.43;;;3.97;;
25917;SDS011;13899;51.174;4.456;2023-07-31T03:24:12;15.37;;;5.13;;
25917;SDS011;13899;51.174;4.456;2023-07-31T03:26:38;10.60;;;4.85;;
25917;SDS011;13899;51.174;4.456;2023-07-31T03:29:09;9.90;;;4.13;;
25917;SDS011;13899;51.174;4.456;2023-07-31T03:31:35;9.97;;;4.47;;
25917;SDS011;13899;51.174;4.456;2023-07-31T03:34:04;8.88;;;4.53;;
25917;SDS011;13899;51.174;4.456;2023-07-31T03:36:31;19.60;;;5.73;;
25917;SDS011;13899;51.174;4.456;2023-07-31T03:38:58;20.17;;;5.03;;
25917;SDS011;13899;51.174;4.456;2023-07-31T03:41:24;11.27;;;4.57;;
25917;SDS011;13899;51.174;4.456;2023-07-31T03:43:54;11.30;;;4.32;;
25917;SDS011;13899;51.174;4.456;2023-07-31T03:46:21;10.95;;;4.72;;
25917;SDS011;13899;51.174;4.456;2023-07-31T03:48:48;11.07;;;4.72;;
25917;SDS011;13899;51.174;4.456;2023-07-31T03:51:14;7.70;;;4.28;;
25917;SDS011;13899;51.174;4.456;2023-07-31T03:53:39;9.73;;;5.78;;
25917;SDS011;13899;51.174;4.456;2023-07-31T03:56:05;12.25;;;5.80;;
25917;SDS011;13899;51.174;4.456;2023-07-31T03:58:32;8.63;;;4.82;;
25917;SDS011;13899;51.174;4.456;2023-07-31T04:01:02;17.92;;;6.53;;
25917;SDS011;13899;51.174;4.456;2023-07-31T04:03:32;9.23;;;4.88;;
25917;SDS011;13899;51.174;4.456;2023-07-31T04:05:57;15.43;;;5.97;;
25917;SDS011;13899;51.174;4.456;2023-07-31T04:08:23;16.88;;;5.95;;
25917;SDS011;13899;51.174;4.456;2023-07-31T04:10:49;11.90;;;5.67;;
25917;SDS011;13899;51.174;4.456;2023-07-31T04:13:15;15.68;;;6.68;;
25917;SDS011;13899;51.174;4.456;2023-07-31T04:15:41;10.95;;;6.28;;
25917;SDS011;13899;51.174;4.456;2023-07-31T04:18:07;13.38;;;6.53;;
25917;SDS011;13899;51.174;4.456;2023-07-31T04:20:33;11.97;;;7.00;;
25917;SDS011;13899;51.174;4.456;2023-07-31T04:23:00;13.82;;;6.22;;
25917;SDS011;13899;51.174;4.456;2023-07-31T04:25:26;12.63;;;6.78;;
25917;SDS011;13899;51.174;4.456;2023-07-31T04:27:51;7.68;;;6.07;;
25917;SDS011;13899;51.174;4.456;2023-07-31T04:30:20;10.65;;;6.10;;
25917;SDS011;13899;51.174;4.456;2023-07-31T04:32:45;15.43;;;6.45;;
25917;SDS011;13899;51.174;4.456;2023-07-31T04:35:11;10.17;;;6.50;;
25917;SDS011;13899;51.174;4.456;2023-07-31T04:37:37;13.87;;;6.70;;
25917;SDS011;13899;51.174;4.456;2023-07-31T04:40:03;13.18;;;7.07;;
25917;SDS011;13899;51.174;4.456;2023-07-31T04:42:30;13.13;;;7.53;;
25917;SDS011;13899;51.174;4.456;2023-07-31T04:44:56;11.23;;;7.32;;
25917;SDS011;13899;51.174;4.456;2023-07-31T04:47:22;13.32;;;7.32;;
25917;SDS011;13899;51.174;4.456;2023-07-31T04:49:47;13.13;;;6.55;;
25917;SDS011;13899;51.174;4.456;2023-07-31T04:52:13;14.33;;;7.00;;
25917;SDS011;13899;51.174;4.456;2023-07-31T04:54:38;10.80;;;7.53;;
25917;SDS011;13899;51.174;4.456;2023-07-31T04:57:04;10.85;;;7.28;;
25917;SDS011;13899;51.174;4.456;2023-07-31T04:59:30;8.93;;;6.70;;
25917;SDS011;13899;51.174;4.456;2023-07-31T05:01:56;12.45;;;7.22;;
25917;SDS011;13899;51.174;4.456;2023-07-31T05:04:23;12.70;;;7.47;;
25917;SDS011;13899;51.174;4.456;2023-07-31T05:09:14;11.37;;;7.33;;
25917;SDS011;13899;51.174;4.456;2023-07-31T05:11:40;10.40;;;6.63;;
25917;SDS011;13899;51.174;4.456;2023-07-31T05:14:07;10.20;;;7.22;;
25917;SDS011;13899;51.174;4.456;2023-07-31T05:16:36;7.85;;;6.60;;
25917;SDS011;13899;51.174;4.456;2023-07-31T05:19:05;11.65;;;7.97;;
25917;SDS011;13899;51.174;4.456;2023-07-31T05:21:31;10.50;;;7.65;;
25917;SDS011;13899;51.174;4.456;2023-07-31T05:23:56;10.50;;;9.13;;
25917;SDS011;13899;51.174;4.456;2023-07-31T05:26:40;16.00;;;8.32;;
25917;SDS011;13899;51.174;4.456;2023-07-31T05:29:09;15.02;;;7.65;;
25917;SDS011;13899;51.174;4.456;2023-07-31T05:31:46;11.70;;;8.95;;
25917;SDS011;13899;51.174;4.456;2023-07-31T05:34:36;9.75;;;7.72;;
25917;SDS011;13899;51.174;4.456;2023-07-31T05:37:17;15.73;;;8.68;;
25917;SDS011;13899;51.174;4.456;2023-07-31T05:39:56;11.35;;;8.27;;
25917;SDS011;13899;51.174;4.456;2023-07-31T05:42:23;11.52;;;7.90;;
25917;SDS011;13899;51.174;4.456;2023-07-31T05:44:49;10.90;;;7.77;;
25917;SDS011;13899;51.174;4.456;2023-07-31T05:47:14;9.60;;;8.13;;
25917;SDS011;13899;51.174;4.456;2023-07-31T05:49:40;11.67;;;8.43;;
25917;SDS011;13899;51.174;4.456;2023-07-31T05:52:09;10.75;;;8.27;;
25917;SDS011;13899;51.174;4.456;2023-07-31T05:54:45;12.05;;;7.72;;
25917;SDS011;13899;51.174;4.456;2023-07-31T05:57:16;8.57;;;7.50;;
25917;SDS011;13899;51.174;4.456;2023-07-31T05:59:41;10.27;;;8.63;;
25917;SDS011;13899;51.174;4.456;2023-07-31T06:02:07;10.17;;;8.57;;
25917;SDS011;13899;51.174;4.456;2023-07-31T06:04:36;10.43;;;8.63;;
25917;SDS011;13899;51.174;4.456;2023-07-31T06:07:02;10.20;;;8.32;;
25917;SDS011;13899;51.174;4.456;2023-07-31T06:09:28;14.18;;;8.48;;
25917;SDS011;13899;51.174;4.456;2023-07-31T06:12:09;11.73;;;8.23;;
25917;SDS011;13899;51.174;4.456;2023-07-31T06:14:43;11.60;;;8.93;;
25917;SDS011;13899;51.174;4.456;2023-07-31T06:17:12;9.90;;;7.95;;
25917;SDS011;13899;51.174;4.456;2023-07-31T06:19:41;15.65;;;8.48;;
25917;SDS011;13899;51.174;4.456;2023-07-31T06:22:06;12.95;;;9.30;;
25917;SDS011;13899;51.174;4.456;2023-07-31T06:24:32;16.73;;;8.17;;
25917;SDS011;13899;51.174;4.456;2023-07-31T06:27:22;10.27;;;8.52;;
25917;SDS011;13899;51.174;4.456;2023-07-31T06:29:54;11.77;;;8.48;;
25917;SDS011;13899;51.174;4.456;2023-07-31T06:32:33;9.75;;;7.40;;
25917;SDS011;13899;51.174;4.456;2023-07-31T06:35:01;11.00;;;8.23;;
25917;SDS011;13899;51.174;4.456;2023-07-31T06:37:26;8.68;;;7.50;;
25917;SDS011;13899;51.174;4.456;2023-07-31T06:39:59;11.57;;;7.30;;
25917;SDS011;13899;51.174;4.456;2023-07-31T06:42:27;11.43;;;7.57;;
25917;SDS011;13899;51.174;4.456;2023-07-31T06:44:56;10.32;;;7.28;;
25917;SDS011;13899;51.174;4.456;2023-07-31T06:47:23;11.05;;;7.57;;
25917;SDS011;13899;51.174;4.456;2023-07-31T06:49:48;9.20;;;6.28;;
25917;SDS011;13899;51.174;4.456;2023-07-31T06:52:14;8.45;;;5.93;;
25917;SDS011;13899;51.174;4.456;2023-07-31T06:54:40;7.00;;;6.28;;
25917;SDS011;13899;51.174;4.456;2023-07-31T06:57:08;8.70;;;6.50;;
25917;SDS011;13899;51.174;4.456;2023-07-31T06:59:34;10.57;;;6.38;;
25917;SDS011;13899;51.174;4.456;2023-07-31T07:02:20;7.78;;;5.75;;
25917;SDS011;13899;51.174;4.456;2023-07-31T07:04:45;8.53;;;6.40;;
25917;SDS011;13899;51.174;4.456;2023-07-31T07:07:13;8.18;;;6.43;;
25917;SDS011;13899;51.174;4.456;2023-07-31T07:09:42;9.30;;;5.77;;
25917;SDS011;13899;51.174;4.456;2023-07-31T07:12:29;11.77;;;6.57;;
25917;SDS011;13899;51.174;4.456;2023-07-31T07:14:59;12.18;;;6.10;;
25917;SDS011;13899;51.174;4.456;2023-07-31T07:17:25;12.70;;;5.70;;
25917;SDS011;13899;51.174;4.456;2023-07-31T07:19:53;8.10;;;6.22;;
25917;SDS011;13899;51.174;4.456;2023-07-31T07:22:19;8.40;;;5.90;;
25917;SDS011;13899;51.174;4.456;2023-07-31T07:24:53;8.65;;;6.43;;
25917;SDS011;13899;51.174;4.456;2023-07-31T07:27:20;7.38;;;5.63;;
25917;SDS011;13899;51.174;4.456;2023-07-31T07:29:46;7.07;;;6.15;;
25917;SDS011;13899;51.174;4.456;2023-07-31T07:32:19;8.18;;;6.40;;
25917;SDS011;13899;51.174;4.456;2023-07-31T07:37:13;6.80;;;5.57;;
25917;SDS011;13899;51.174;4.456;2023-07-31T07:39:54;8.90;;;5.95;;
25917;SDS011;13899;51.174;4.456;2023-07-31T07:42:19;11.43;;;5.17;;
25917;SDS011;13899;51.174;4.456;2023-07-31T07:44:45;6.97;;;4.93;;
25917;SDS011;13899;51.174;4.456;2023-07-31T07:47:19;7.55;;;4.53;;
25917;SDS011;13899;51.174;4.456;2023-07-31T07:52:47;8.50;;;4.97;;
25917;SDS011;13899;51.174;4.456;2023-07-31T07:55:14;5.85;;;4.18;;
25917;SDS011;13899;51.174;4.456;2023-07-31T07:57:40;5.70;;;4.10;;
25917;SDS011;13899;51.174;4.456;2023-07-31T08:00:28;6.63;;;4.63;;
25917;SDS011;13899;51.174;4.456;2023-07-31T08:02:54;5.90;;;4.00;;
25917;SDS011;13899;51.174;4.456;2023-07-31T08:05:22;7.82;;;4.22;;
25917;SDS011;13899;51.174;4.456;2023-07-31T08:07:48;5.95;;;4.00;;
25917;SDS011;13899;51.174;4.456;2023-07-31T08:10:32;5.05;;;3.75;;
25917;SDS011;13899;51.174;4.456;2023-07-31T08:12:58;9.23;;;3.50;;
25917;SDS011;13899;51.174;4.456;2023-07-31T08:15:23;5.65;;;3.33;;
25917;SDS011;13899;51.174;4.456;2023-07-31T08:17:49;4.75;;;4.00;;
25917;SDS011;13899;51.174;4.456;2023-07-31T08:20:22;5.07;;;3.45;;
25917;SDS011;13899;51.174;4.456;2023-07-31T08:22:47;5.82;;;4.13;;
25917;SDS011;13899;51.174;4.456;2023-07-31T08:25:18;7.05;;;3.60;;
25917;SDS011;13899;51.174;4.456;2023-07-31T08:27:46;6.05;;;3.83;;
25917;SDS011;13899;51.174;4.456;2023-07-31T08:30:21;5.72;;;3.47;;
25917;SDS011;13899;51.174;4.456;2023-07-31T08:33:07;7.10;;;3.47;;
25917;SDS011;13899;51.174;4.456;2023-07-31T08:35:33;5.30;;;3.50;;
25917;SDS011;13899;51.174;4.456;2023-07-31T08:38:02;5.87;;;3.50;;
25917;SDS011;13899;51.174;4.456;2023-07-31T08:41:05;5.60;;;3.72;;
25917;SDS011;13899;51.174;4.456;2023-07-31T08:43:39;9.20;;;3.75;;
25917;SDS011;13899;51.174;4.456;2023-07-31T08:46:11;5.45;;;3.00;;
25917;SDS011;13899;51.174;4.456;2023-07-31T08:48:43;5.43;;;3.50;;
25917;SDS011;13899;51.174;4.456;2023-07-31T08:51:10;7.90;;;3.50;;
25917;SDS011;13899;51.174;4.456;2023-07-31T08:53:36;4.20;;;3.05;;
25917;SDS011;13899;51.174;4.456;2023-07-31T08:56:04;4.82;;;2.95;;
25917;SDS011;13899;51.174;4.456;2023-07-31T08:58:34;5.50;;;3.28;;
25917;SDS011;13899;51.174;4.456;2023-07-31T09:01:04;3.88;;;2.97;;
25917;SDS011;13899;51.174;4.456;2023-07-31T09:03:33;5.03;;;2.90;;
25917;SDS011;13899;51.174;4.456;2023-07-31T09:06:21;5.82;;;2.80;;
25917;SDS011;13899;51.174;4.456;2023-07-31T09:08:50;4.43;;;3.00;;
25917;SDS011;13899;51.174;4.456;2023-07-31T09:11:42;3.17;;;2.63;;
25917;SDS011;13899;51.174;4.456;2023-07-31T09:14:09;4.25;;;2.75;;
25917;SDS011;13899;51.174;4.456;2023-07-31T09:16:35;4.30;;;2.60;;
25917;SDS011;13899;51.174;4.456;2023-07-31T09:19:24;4.47;;;2.30;;
25917;SDS011;13899;51.174;4.456;2023-07-31T09:22:07;4.82;;;2.40;;
25917;SDS011;13899;51.174;4.456;2023-07-31T09:24:46;4.82;;;2.80;;
25917;SDS011;13899;51.174;4.456;2023-07-31T09:27:28;3.90;;;2.40;;
25917;SDS011;13899;51.174;4.456;2023-07-31T09:30:43;3.75;;;2.85;;
25917;SDS011;13899;51.174;4.456;2023-07-31T09:33:23;3.08;;;2.40;;
25917;SDS011;13899;51.174;4.456;2023-07-31T09:35:52;5.57;;;2.40;;
25917;SDS011;13899;51.174;4.456;2023-07-31T09:38:29;5.65;;;2.78;;
25917;SDS011;13899;51.174;4.456;2023-07-31T09:40:55;5.32;;;3.13;;
25917;SDS011;13899;51.174;4.456;2023-07-31T09:43:24;5.22;;;2.72;;
25917;SDS011;13899;51.174;4.456;2023-07-31T09:45:56;5.70;;;2.50;;
25917;SDS011;13899;51.174;4.456;2023-07-31T09:48:25;8.82;;;3.28;;
25917;SDS011;13899;51.174;4.456;2023-07-31T09:50:55;4.88;;;3.00;;
25917;SDS011;13899;51.174;4.456;2023-07-31T09:53:32;3.40;;;2.72;;
25917;SDS011;13899;51.174;4.456;2023-07-31T09:55:58;6.47;;;3.17;;
25917;SDS011;13899;51.174;4.456;2023-07-31T09:58:34;3.90;;;3.15;;
25917;SDS011;13899;51.174;4.456;2023-07-31T10:01:03;5.05;;;3.42;;
25917;SDS011;13899;51.174;4.456;2023-07-31T10:03:29;5.57;;;3.40;;
25917;SDS011;13899;51.174;4.456;2023-07-31T10:06:24;5.45;;;3.55;;
25917;SDS011;13899;51.174;4.456;2023-07-31T10:08:51;7.07;;;4.18;;
25917;SDS011;13899;51.174;4.456;2023-07-31T10:11:18;6.75;;;3.88;;
25917;SDS011;13899;51.174;4.456;2023-07-31T10:13:52;7.72;;;4.10;;
25917;SDS011;13899;51.174;4.456;2023-07-31T10:16:30;5.28;;;3.67;;
25917;SDS011;13899;51.174;4.456;2023-07-31T10:18:57;6.45;;;3.40;;
25917;SDS011;13899;51.174;4.456;2023-07-31T10:21:24;6.40;;;3.90;;
25917;SDS011;13899;51.174;4.456;2023-07-31T10:23:55;8.07;;;3.00;;
25917;SDS011;13899;51.174;4.456;2023-07-31T10:26:22;3.30;;;2.83;;
25917;SDS011;13899;51.174;4.456;2023-07-31T10:28:50;4.82;;;2.97;;
25917;SDS011;13899;51.174;4.456;2023-07-31T10:31:23;4.95;;;2.88;;
25917;SDS011;13899;51.174;4.456;2023-07-31T10:33:53;4.30;;;2.72;;
25917;SDS011;13899;51.174;4.456;2023-07-31T10:36:30;4.40;;;3.00;;
25917;SDS011;13899;51.174;4.456;2023-07-31T10:39:00;4.75;;;3.10;;
25917;SDS011;13899;51.174;4.456;2023-07-31T10:41:29;5.03;;;3.60;;
25917;SDS011;13899;51.174;4.456;2023-07-31T10:44:07;4.57;;;3.97;;
25917;SDS011;13899;51.174;4.456;2023-07-31T10:46:33;7.35;;;4.50;;
25917;SDS011;13899;51.174;4.456;2023-07-31T10:49:02;5.03;;;3.65;;
25917;SDS011;13899;51.174;4.456;2023-07-31T10:51:34;7.03;;;4.47;;
25917;SDS011;13899;51.174;4.456;2023-07-31T10:54:16;6.50;;;3.90;;
25917;SDS011;13899;51.174;4.456;2023-07-31T10:56:46;6.80;;;4.43;;
25917;SDS011;13899;51.174;4.456;2023-07-31T10:59:34;4.78;;;3.70;;
25917;SDS011;13899;51.174;4.456;2023-07-31T11:02:01;6.72;;;4.55;;
25917;SDS011;13899;51.174;4.456;2023-07-31T11:04:28;4.75;;;3.83;;
25917;SDS011;13899;51.174;4.456;2023-07-31T11:07:10;8.55;;;5.68;;
25917;SDS011;13899;51.174;4.456;2023-07-31T11:13:12;5.88;;;4.38;;
25917;SDS011;13899;51.174;4.456;2023-07-31T11:16:01;7.53;;;4.30;;
25917;SDS011;13899;51.174;4.456;2023-07-31T11:18:30;6.55;;;4.78;;
25917;SDS011;13899;51.174;4.456;2023-07-31T11:21:18;8.63;;;5.65;;
25917;SDS011;13899;51.174;4.456;2023-07-31T11:23:57;11.70;;;5.40;;
25917;SDS011;13899;51.174;4.456;2023-07-31T11:26:23;7.28;;;6.15;;
25917;SDS011;13899;51.174;4.456;2023-07-31T11:28:50;11.23;;;5.85;;
25917;SDS011;13899;51.174;4.456;2023-07-31T11:31:16;7.37;;;6.17;;
25917;SDS011;13899;51.174;4.456;2023-07-31T11:34:05;7.35;;;6.15;;
25917;SDS011;13899;51.174;4.456;2023-07-31T11:36:55;9.80;;;5.68;;
25917;SDS011;13899;51.174;4.456;2023-07-31T11:39:24;7.57;;;5.40;;
25917;SDS011;13899;51.174;4.456;2023-07-31T11:41:52;6.32;;;4.88;;
25917;SDS011;13899;51.174;4.456;2023-07-31T11:44:26;9.07;;;4.97;;
25917;SDS011;13899;51.174;4.456;2023-07-31T11:47:05;7.18;;;5.70;;
25917;SDS011;13899;51.174;4.456;2023-07-31T11:49:38;7.03;;;4.40;;
25917;SDS011;13899;51.174;4.456;2023-07-31T11:52:32;7.63;;;5.40;;
25917;SDS011;13899;51.174;4.456;2023-07-31T11:55:12;6.50;;;4.55;;
25917;SDS011;13899;51.174;4.456;2023-07-31T11:57:47;6.18;;;5.00;;
25917;SDS011;13899;51.174;4.456;2023-07-31T12:00:15;6.33;;;4.60;;
25917;SDS011;13899;51.174;4.456;2023-07-31T12:03:20;7.05;;;4.75;;
25917;SDS011;13899;51.174;4.456;2023-07-31T12:05:47;6.60;;;4.90;;
25917;SDS011;13899;51.174;4.456;2023-07-31T12:08:31;6.32;;;4.50;;
25917;SDS011;13899;51.174;4.456;2023-07-31T12:11:04;7.80;;;4.80;;
25917;SDS011;13899;51.174;4.456;2023-07-31T12:13:50;7.88;;;4.75;;
25917;SDS011;13899;51.174;4.456;2023-07-31T12:16:59;7.30;;;4.88;;
25917;SDS011;13899;51.174;4.456;2023-07-31T12:19:28;6.85;;;5.53;;
25917;SDS011;13899;51.174;4.456;2023-07-31T12:22:01;4.20;;;3.78;;
25917;SDS011;13899;51.174;4.456;2023-07-31T12:24:40;8.65;;;7.72;;
25917;SDS011;13899;51.174;4.456;2023-07-31T12:27:14;7.80;;;5.00;;
25917;SDS011;13899;51.174;4.456;2023-07-31T12:29:45;12.27;;;11.38;;
25917;SDS011;13899;51.174;4.456;2023-07-31T12:32:18;9.80;;;8.73;;
25917;SDS011;13899;51.174;4.456;2023-07-31T12:34:50;8.88;;;8.18;;
25917;SDS011;13899;51.174;4.456;2023-07-31T12:37:16;8.45;;;7.07;;
25917;SDS011;13899;51.174;4.456;2023-07-31T12:39:46;8.88;;;7.70;;
25917;SDS011;13899;51.174;4.456;2023-07-31T12:42:32;9.93;;;9.23;;
25917;SDS011;13899;51.174;4.456;2023-07-31T12:45:01;9.95;;;9.10;;
25917;SDS011;13899;51.174;4.456;2023-07-31T12:49:54;9.00;;;4.35;;
25917;SDS011;13899;51.174;4.456;2023-07-31T12:52:22;6.70;;;3.70;;
25917;SDS011;13899;51.174;4.456;2023-07-31T12:54:48;6.50;;;4.10;;
25917;SDS011;13899;51.174;4.456;2023-07-31T12:57:13;8.07;;;4.27;;
25917;SDS011;13899;51.174;4.456;2023-07-31T12:59:43;6.90;;;4.03;;
25917;SDS011;13899;51.174;4.456;2023-07-31T13:02:09;9.70;;;4.53;;
25917;SDS011;13899;51.174;4.456;2023-07-31T13:04:43;7.30;;;6.13;;
25917;SDS011;13899;51.174;4.456;2023-07-31T13:07:09;4.47;;;3.72;;
25917;SDS011;13899;51.174;4.456;2023-07-31T13:09:35;9.63;;;4.40;;
25917;SDS011;13899;51.174;4.456;2023-07-31T13:12:09;6.20;;;4.28;;
25917;SDS011;13899;51.174;4.456;2023-07-31T13:14:47;6.35;;;3.78;;
25917;SDS011;13899;51.174;4.456;2023-07-31T13:17:17;4.13;;;3.72;;
25917;SDS011;13899;51.174;4.456;2023-07-31T13:22:12;5.18;;;4.68;;
25917;SDS011;13899;51.174;4.456;2023-07-31T13:24:38;6.50;;;3.93;;
25917;SDS011;13899;51.174;4.456;2023-07-31T13:27:03;8.10;;;4.15;;
25917;SDS011;13899;51.174;4.456;2023-07-31T13:29:32;7.67;;;4.80;;
25917;SDS011;13899;51.174;4.456;2023-07-31T13:32:01;6.18;;;4.05;;
25917;SDS011;13899;51.174;4.456;2023-07-31T13:34:36;6.88;;;5.00;;
25917;SDS011;13899;51.174;4.456;2023-07-31T13:37:04;10.27;;;5.68;;
25917;SDS011;13899;51.174;4.456;2023-07-31T13:40:18;11.70;;;6.10;;
25917;SDS011;13899;51.174;4.456;2023-07-31T13:42:44;6.40;;;5.67;;
25917;SDS011;13899;51.174;4.456;2023-07-31T13:45:33;5.78;;;4.65;;
25917;SDS011;13899;51.174;4.456;2023-07-31T13:47:59;5.83;;;3.87;;
25917;SDS011;13899;51.174;4.456;2023-07-31T13:50:44;4.75;;;3.83;;
25917;SDS011;13899;51.174;4.456;2023-07-31T13:53:11;5.38;;;4.07;;
25917;SDS011;13899;51.174;4.456;2023-07-31T13:55:48;4.55;;;2.83;;
25917;SDS011;13899;51.174;4.456;2023-07-31T13:58:21;3.35;;;2.72;;
25917;SDS011;13899;51.174;4.456;2023-07-31T14:00:49;6.03;;;3.00;;
25917;SDS011;13899;51.174;4.456;2023-07-31T14:03:19;5.57;;;3.33;;
25917;SDS011;13899;51.174;4.456;2023-07-31T14:06:04;5.77;;;2.77;;
25917;SDS011;13899;51.174;4.456;2023-07-31T14:08:30;3.77;;;2.03;;
25917;SDS011;13899;51.174;4.456;2023-07-31T14:10:56;3.70;;;2.63;;
25917;SDS011;13899;51.174;4.456;2023-07-31T14:13:22;4.05;;;2.70;;
25917;SDS011;13899;51.174;4.456;2023-07-31T14:15:48;3.88;;;2.17;;
25917;SDS011;13899;51.174;4.456;2023-07-31T14:18:13;5.50;;;2.23;;
25917;SDS011;13899;51.174;4.456;2023-07-31T14:20:48;2.95;;;2.38;;
25917;SDS011;13899;51.174;4.456;2023-07-31T14:25:54;3.70;;;2.10;;
25917;SDS011;13899;51.174;4.456;2023-07-31T14:28:21;5.15;;;2.00;;
25917;SDS011;13899;51.174;4.456;2023-07-31T14:30:46;5.33;;;2.20;;
25917;SDS011;13899;51.174;4.456;2023-07-31T14:33:12;3.00;;;2.00;;
25917;SDS011;13899;51.174;4.456;2023-07-31T14:35:38;3.10;;;2.27;;
25917;SDS011;13899;51.174;4.456;2023-07-31T14:38:03;4.20;;;2.63;;
25917;SDS011;13899;51.174;4.456;2023-07-31T14:40:29;4.80;;;3.40;;
25917;SDS011;13899;51.174;4.456;2023-07-31T14:42:55;4.80;;;3.00;;
25917;SDS011;13899;51.174;4.456;2023-07-31T14:45:20;5.35;;;3.47;;
25917;SDS011;13899;51.174;4.456;2023-07-31T14:47:46;4.53;;;2.88;;
25917;SDS011;13899;51.174;4.456;2023-07-31T14:50:13;5.13;;;3.28;;
25917;SDS011;13899;51.174;4.456;2023-07-31T14:52:41;5.65;;;3.45;;
25917;SDS011;13899;51.174;4.456;2023-07-31T14:55:07;4.70;;;2.93;;
25917;SDS011;13899;51.174;4.456;2023-07-31T14:57:34;6.78;;;3.72;;
25917;SDS011;13899;51.174;4.456;2023-07-31T15:00:00;5.37;;;3.97;;
25917;SDS011;13899;51.174;4.456;2023-07-31T15:02:36;7.18;;;4.28;;
25917;SDS011;13899;51.174;4.456;2023-07-31T15:05:03;6.82;;;3.95;;
25917;SDS011;13899;51.174;4.456;2023-07-31T15:07:29;6.22;;;4.43;;
25917;SDS011;13899;51.174;4.456;2023-07-31T15:09:55;8.48;;;4.03;;
25917;SDS011;13899;51.174;4.456;2023-07-31T15:12:20;5.03;;;3.80;;
25917;SDS011;13899;51.174;4.456;2023-07-31T15:14:47;7.03;;;3.30;;
25917;SDS011;13899;51.174;4.456;2023-07-31T15:17:13;5.47;;;3.47;;
25917;SDS011;13899;51.174;4.456;2023-07-31T15:19:39;7.67;;;3.70;;
25917;SDS011;13899;51.174;4.456;2023-07-31T15:22:05;3.13;;;2.78;;
25917;SDS011;13899;51.174;4.456;2023-07-31T15:24:31;7.93;;;3.42;;
25917;SDS011;13899;51.174;4.456;2023-07-31T15:26:57;3.85;;;2.72;;
25917;SDS011;13899;51.174;4.456;2023-07-31T15:29:23;3.60;;;2.60;;
25917;SDS011;13899;51.174;4.456;2023-07-31T15:31:52;4.88;;;2.45;;